M I D A S
Marine Information and Data Acquisition System
Tripno 441 of the Zeeleeuw from 2003-02-26 07:37:27 to 2003-02-26 17:27:41
Back to CruiseResearch ActivitiesStationsMapUnderway DataData graphs

EquipmentUnitsComments
TimeDGPSUTC
LatitudeDGPSDM.mWGS84
LongitudeDGPSDM.mWGS84
SpeedMeteo Stationm/sRelative wind speed
DirectionMeteo StationdegRelative wind direction
TemperatureMeteo Stationdeg CelciusAir temperature
PressureMeteo StationPaAtmospheric pressure
HumidityMeteo Station%Relative humidity
Missing or incorrect values are displayed as -999
Metereological data collected by the RV Zeeleeuw from 2003-02-26 07:37:27 to 2003-02-26 17:27:41
                                                                                    Next 1000 lines
Time Latitude Longitude Speed Direction Temperature Pressure Humidity
2003-02-26 07:37:33 51°13.595 2°56.103 2 231 3 101250 66
2003-02-26 07:37:38 51°13.595 2°56.103 1.9 225 3 101250 66
2003-02-26 07:37:43 51°13.595 2°56.103 2.1 229 3 101250 66
2003-02-26 07:37:48 51°13.595 2°56.103 2 223 3 101250 66
2003-02-26 07:37:53 51°13.595 2°56.103 2.2 222 2.9 101250 66
2003-02-26 07:37:58 51°13.594 2°56.104 1.8 224 2.9 101250 66
2003-02-26 07:38:03 51°13.594 2°56.103 2.1 222 2.9 101250 67
2003-02-26 07:38:08 51°13.594 2°56.103 2.2 222 2.9 101250 67
2003-02-26 07:38:13 51°13.594 2°56.103 2.2 225 2.9 101250 67
2003-02-26 07:38:18 51°13.594 2°56.103 1.8 224 2.9 101250 67
2003-02-26 07:38:23 51°13.594 2°56.102 1.5 236 2.9 101250 67
2003-02-26 07:38:28 51°13.595 2°56.1 0.9 243 2.9 101250 67
2003-02-26 07:38:33 51°13.596 2°56.097 0.8 238 2.9 101250 67
2003-02-26 07:38:38 51°13.596 2°56.094 0.6 294 2.9 101250 67
2003-02-26 07:38:44 51°13.598 2°56.088 0.5 290 2.9 101250 67
2003-02-26 07:38:49 51°13.599 2°56.083 0.4 290 2.9 101250 67
2003-02-26 07:38:54 51°13.601 2°56.078 0.1 290 2.9 101250 67
2003-02-26 07:38:59 51°13.603 2°56.072 0.1 290 2.9 101250 67
2003-02-26 07:39:04 51°13.605 2°56.065   291 2.9 101250 67
2003-02-26 07:39:09 51°13.607 2°56.058   303 2.9 101250 67
2003-02-26 07:39:14 51°13.609 2°56.051   326 2.9 101250 67
2003-02-26 07:39:19 51°13.611 2°56.042 0.2 67 2.9 101250 67
2003-02-26 07:39:24 51°13.614 2°56.034 0.3 67 2.8 101250 67
2003-02-26 07:39:29 51°13.616 2°56.025 0.3 79 2.8 101250 67
2003-02-26 07:39:33 51°13.617 2°56.019 0.4 118 2.9 101250 67
2003-02-26 07:39:39 51°13.619 2°56.01 0.5 204 2.9 101250 67
2003-02-26 07:39:44 51°13.621 2°56.003 0.6 203 2.8 101250 67
2003-02-26 07:39:48 51°13.622 2°55.998 0.6 203 2.8 101250 67
2003-02-26 07:39:53 51°13.623 2°55.993 1.1 205 2.8 101250 68
2003-02-26 07:39:57 51°13.624 2°55.99 1.8 212 2.8 101250 68
2003-02-26 07:40:04 51°13.624 2°55.987 2.1 222 2.9 101250 68
2003-02-26 07:40:08 51°13.624 2°55.986 1.6 224 2.9 101250 68
2003-02-26 07:40:13 51°13.625 2°55.984 1.4 224 2.8 101250 68
2003-02-26 07:40:18 51°13.626 2°55.982 1.2 230 2.8 101250 68
2003-02-26 07:40:23 51°13.627 2°55.978 0.9 227 2.8 101250 68
2003-02-26 07:40:28 51°13.628 2°55.973 1 231 2.8 101250 68
2003-02-26 07:40:33 51°13.629 2°55.968 0.8 231 2.8 101250 68
2003-02-26 07:40:39 51°13.632 2°55.961 0.5 231 2.8 101250 68
2003-02-26 07:40:44 51°13.634 2°55.954 0.4 231 2.8 101250 68
2003-02-26 07:40:49 51°13.636 2°55.946 0.2 231 2.8 101250 68
2003-02-26 07:40:54 51°13.638 2°55.939 0.2 231 2.8 101250 68
2003-02-26 07:40:59 51°13.641 2°55.93 0.1 231 2.8 101250 68
2003-02-26 07:41:04 51°13.644 2°55.922 0.1 232 2.8 101250 68
2003-02-26 07:41:09 51°13.647 2°55.913 0.3 238 2.8 101250 68
2003-02-26 07:41:14 51°13.65 2°55.904 0.4 274 2.8 101250 68
2003-02-26 07:41:19 51°13.653 2°55.895 0.3 358 2.8 101250 68
2003-02-26 07:41:24 51°13.657 2°55.886 0.3 8 2.8 101250 68
2003-02-26 07:41:29 51°13.66 2°55.877 0.3 57 2.8 101250 68
2003-02-26 07:41:34 51°13.664 2°55.868 0.2 57 2.8 101250 68
2003-02-26 07:41:39 51°13.667 2°55.859 0.2 132 2.8 101250 68
2003-02-26 07:41:44 51°13.67 2°55.851 0.2 132 2.9 101250 68
2003-02-26 07:41:48 51°13.672 2°55.844 0.1 45 2.9 101250 68
2003-02-26 07:41:54 51°13.676 2°55.833 0.1 45 2.9 101250 68
2003-02-26 07:41:59 51°13.679 2°55.825 0.1 45 2.9 101250 68
2003-02-26 07:42:04 51°13.682 2°55.817   45 2.9 101250 69
2003-02-26 07:42:09 51°13.684 2°55.809   45 2.9 101250 69
2003-02-26 07:42:13 51°13.686 2°55.803   54 2.9 101250 69
2003-02-26 07:42:19 51°13.689 2°55.794 0.3 111 2.9 101250 69
2003-02-26 07:42:24 51°13.69 2°55.786 0.6 165 2.9 101250 69
2003-02-26 07:42:28 51°13.692 2°55.781 0.6 167 2.9 101250 69
2003-02-26 07:42:32 51°13.693 2°55.775 0.8 180 2.9 101250 69
2003-02-26 07:42:37 51°13.695 2°55.769 0.8 181 2.9 101250 69
2003-02-26 07:42:43 51°13.696 2°55.763 1.1 180 3 101240 69
2003-02-26 07:42:48 51°13.696 2°55.76 1.2 181 3 101240 69
2003-02-26 07:42:53 51°13.697 2°55.757 1.6 181 2.9 101240 69
2003-02-26 07:42:58 51°13.697 2°55.755 2.2 181 2.9 101240 69
2003-02-26 07:43:04 51°13.697 2°55.754 2.2 180 2.9 101240 68
2003-02-26 07:43:08 51°13.697 2°55.754 2.2 179 2.9 101240 68
2003-02-26 07:43:13 51°13.698 2°55.754 2.2 181 2.9 101240 68
2003-02-26 07:43:19 51°13.698 2°55.754 2.8 170 2.9 101240 68
2003-02-26 07:43:24 51°13.698 2°55.755 2.8 168 2.9 101240 68
2003-02-26 07:43:28 51°13.699 2°55.755 2.5 160 2.9 101240 68
2003-02-26 07:43:33 51°13.699 2°55.755 2.2 155 2.9 101240 68
2003-02-26 07:43:38 51°13.699 2°55.755 2.2 155 2.9 101240 68
2003-02-26 07:43:44 51°13.699 2°55.754 2.3 148 2.9 101240 68
2003-02-26 07:43:48 51°13.699 2°55.753 2.4 148 2.9 101240 68
2003-02-26 07:43:53 51°13.698 2°55.752 2.3 143 2.9 101240 68
2003-02-26 07:43:59 51°13.698 2°55.751 2.4 136 2.9 101240 68
2003-02-26 07:44:03 51°13.698 2°55.75 2.2 135 2.9 101240 69
2003-02-26 07:44:09 51°13.697 2°55.749 2.1 130 2.9 101240 69
2003-02-26 07:44:13 51°13.696 2°55.747 2.2 130 2.8 101240 69
2003-02-26 07:44:17 51°13.695 2°55.746 2.3 130 2.8 101240 69
2003-02-26 07:44:23 51°13.694 2°55.744 2.3 128 2.8 101250 69
2003-02-26 07:44:28 51°13.693 2°55.742 2.1 127 2.8 101250 69
2003-02-26 07:44:33 51°13.692 2°55.74 2.1 128 2.8 101240 69
2003-02-26 07:44:38 51°13.691 2°55.739 1.8 133 2.8 101240 69
2003-02-26 07:44:43 51°13.691 2°55.738 2 124 2.8 101240 69
2003-02-26 07:44:49 51°13.691 2°55.738 1.7 125 2.8 101240 69
2003-02-26 07:44:53 51°13.691 2°55.737 2.3 129 2.8 101250 69
2003-02-26 07:44:58 51°13.691 2°55.737 2.2 130 2.8 101250 69
2003-02-26 07:45:04 51°13.691 2°55.737 2.3 124 2.8 101240 69
2003-02-26 07:45:08 51°13.691 2°55.737 2.2 125 2.8 101240 69
2003-02-26 07:45:13 51°13.692 2°55.737 2.1 122 2.8 101250 69
2003-02-26 07:45:18 51°13.692 2°55.737 2.3 122 2.8 101250 69
2003-02-26 07:45:21 51°13.693 2°55.737 2 120 2.8 101240 69
2003-02-26 07:45:29 51°13.694 2°55.737 1.9 115 2.8 101240 69
2003-02-26 07:45:33 51°13.695 2°55.738 1.9 113 2.8 101240 69
2003-02-26 07:45:37 51°13.696 2°55.737 1.6 109 2.8 101240 69
2003-02-26 07:45:44 51°13.699 2°55.737 1.6 106 2.8 101250 69
2003-02-26 07:45:48 51°13.701 2°55.736 1.8 100 2.8 101250 69
2003-02-26 07:45:53 51°13.704 2°55.735 1.6 103 2.8 101240 69
2003-02-26 07:45:58 51°13.706 2°55.733 1.2 103 2.8 101240 69
2003-02-26 07:46:03 51°13.71 2°55.731 1.1 102 2.8 101240 69
2003-02-26 07:46:09 51°13.713 2°55.729 1.5 102 2.8 101240 69
2003-02-26 07:46:13 51°13.716 2°55.727 1.5 102 2.8 101250 69
2003-02-26 07:46:19 51°13.721 2°55.723 1.1 102 2.8 101250 69
2003-02-26 07:46:23 51°13.724 2°55.721 0.9 113 2.8 101240 69
2003-02-26 07:46:28 51°13.728 2°55.717 0.8 118 2.8 101240 69
2003-02-26 07:46:33 51°13.733 2°55.713 0.8 129 2.8 101240 69
2003-02-26 07:46:38 51°13.738 2°55.709 0.8 133 2.8 101240 69
2003-02-26 07:46:43 51°13.744 2°55.705 0.7 133 2.8 101240 69
2003-02-26 07:46:49 51°13.751 2°55.699 0.7 133 2.8 101240 69
2003-02-26 07:46:53 51°13.756 2°55.695 0.8 178 2.8 101250 69
2003-02-26 07:46:58 51°13.762 2°55.689 0.9 189 2.8 101250 69
2003-02-26 07:47:03 51°13.77 2°55.683 1.1 199 2.8 101240 70
2003-02-26 07:47:09 51°13.778 2°55.676 1.4 204 2.8 101240 70
2003-02-26 07:47:13 51°13.785 2°55.671 1.6 212 2.8 101240 70
2003-02-26 07:47:18 51°13.793 2°55.664 1.6 212 2.8 101240 70
2003-02-26 07:47:23 51°13.801 2°55.658 1.5 212 2.8 101240 69
2003-02-26 07:47:28 51°13.809 2°55.651 1.4 209 2.8 101240 69
2003-02-26 07:47:33 51°13.818 2°55.644 1.9 213 2.8 101240 69
2003-02-26 07:47:37 51°13.825 2°55.638 1.6 216 2.8 101240 69
2003-02-26 07:47:44 51°13.838 2°55.628 1.7 216 2.8 101240 70
2003-02-26 07:47:48 51°13.845 2°55.623 1.4 208 2.8 101240 70
2003-02-26 07:47:53 51°13.855 2°55.616 1.6 215 2.8 101240 69
2003-02-26 07:47:57 51°13.862 2°55.61 1.8 218 2.8 101240 69
2003-02-26 07:48:03 51°13.874 2°55.601 1.7 222 2.8 101240 70
2003-02-26 07:48:08 51°13.883 2°55.594 2 223 2.8 101240 70
2003-02-26 07:48:13 51°13.893 2°55.587 2.2 223 2.8 101240 69
2003-02-26 07:48:18 51°13.903 2°55.58 2.3 205 2.8 101240 69
2003-02-26 07:48:23 51°13.914 2°55.573 2 210 2.8 101240 70
2003-02-26 07:48:28 51°13.924 2°55.566 2.3 214 2.8 101240 70
2003-02-26 07:48:33 51°13.934 2°55.559 2.5 219 2.8 101240 69
2003-02-26 07:48:38 51°13.944 2°55.551 2.7 208 2.8 101240 69
2003-02-26 07:48:43 51°13.954 2°55.544 2.5 216 2.8 101240 69
2003-02-26 07:48:49 51°13.965 2°55.536 2.3 219 2.8 101240 69
2003-02-26 07:48:53 51°13.973 2°55.53 2.3 203 2.8 101240 69
2003-02-26 07:48:57 51°13.981 2°55.525 2.2 225 2.8 101240 69
2003-02-26 07:49:04 51°13.994 2°55.515 2.2 209 2.8 101240 69
2003-02-26 07:49:08 51°14.002 2°55.509 2.5 211 2.8 101240 69
2003-02-26 07:49:13 51°14.012 2°55.502 2 200 2.8 101240 69
2003-02-26 07:49:18 51°14.021 2°55.494 1.6 200 2.8 101240 69
2003-02-26 07:49:23 51°14.031 2°55.487 1.6 214 2.9 101240 69
2003-02-26 07:49:28 51°14.041 2°55.48 1.3 207 2.9 101240 69
2003-02-26 07:49:33 51°14.051 2°55.473 1.4 212 2.9 101240 69
2003-02-26 07:49:37 51°14.059 2°55.467 1.5 198 2.9 101240 69
2003-02-26 07:49:43 51°14.071 2°55.458 1.6 205 2.9 101240 69
2003-02-26 07:49:48 51°14.081 2°55.451 1.5 199 2.9 101240 69
2003-02-26 07:49:53 51°14.09 2°55.444 1.7 197 2.9 101240 69
2003-02-26 07:49:58 51°14.1 2°55.436 1.9 183 2.9 101240 69
2003-02-26 07:50:03 51°14.11 2°55.429 1.7 187 2.9 101240 68
2003-02-26 07:50:08 51°14.12 2°55.422 1.5 177 2.9 101240 68
2003-02-26 07:50:13 51°14.13 2°55.414 1.2 184 2.9 101240 68
2003-02-26 07:50:18 51°14.139 2°55.406 1.2 184 2.9 101240 68
2003-02-26 07:50:23 51°14.149 2°55.398 1.3 168 2.9 101240 68
2003-02-26 07:50:29 51°14.161 2°55.388 1.4 184 2.9 101240 68
2003-02-26 07:50:33 51°14.168 2°55.381 0.7 167 2.9 101240 68
2003-02-26 07:50:37 51°14.176 2°55.374 1.2 167 2.9 101240 68
2003-02-26 07:50:44 51°14.189 2°55.361 1.1 165 2.9 101240 67
2003-02-26 07:50:48 51°14.196 2°55.353 0.9 144 2.9 101240 67
2003-02-26 07:50:53 51°14.205 2°55.343 1.2 152 2.9 101240 67
2003-02-26 07:50:58 51°14.214 2°55.333 0.8 159 2.9 101240 67
2003-02-26 07:51:03 51°14.223 2°55.322 0.6 159 2.9 101240 67
2003-02-26 07:51:08 51°14.231 2°55.311 0.8 155 2.9 101240 67
2003-02-26 07:51:13 51°14.239 2°55.3 0.7 155 2.9 101240 67
2003-02-26 07:51:19 51°14.249 2°55.286 0.4 155 2.9 101240 67
2003-02-26 07:51:24 51°14.257 2°55.273 0.2 170 2.9 101240 67
2003-02-26 07:51:28 51°14.263 2°55.263 0.9 208 2.9 101240 67
2003-02-26 07:51:33 51°14.27 2°55.25 0.9 212 2.9 101240 67
2003-02-26 07:51:39 51°14.279 2°55.234 0.6 212 2.9 101240 67
2003-02-26 07:51:42 51°14.284 2°55.226 0.5 217 2.9 101240 67
2003-02-26 07:51:48 51°14.292 2°55.21 0.5 219 2.9 101240 67
2003-02-26 07:51:53 51°14.299 2°55.196 0.2 223 2.9 101240 67
2003-02-26 07:51:58 51°14.306 2°55.182 0.1 224 2.9 101240 67
2003-02-26 07:52:03 51°14.312 2°55.169 0.1 224 3 101240 67
2003-02-26 07:52:08 51°14.319 2°55.155 0.2 224 3 101240 67
2003-02-26 07:52:13 51°14.325 2°55.14 0.3 231 3 101240 67
2003-02-26 07:52:17 51°14.33 2°55.129 0.7 273 3 101240 67
2003-02-26 07:52:23 51°14.338 2°55.111 0.8 281 3 101240 67
2003-02-26 07:52:29 51°14.345 2°55.094 0.4 288 3 101240 67
2003-02-26 07:52:33 51°14.35 2°55.082 0.3 288 3 101240 67
2003-02-26 07:52:37 51°14.356 2°55.069 0.3 288 3 101240 67
2003-02-26 07:52:44 51°14.367 2°55.047 0.4 288 3 101240 67
2003-02-26 07:52:48 51°14.374 2°55.034 0.4 288 3 101240 67
2003-02-26 07:52:53 51°14.384 2°55.019 0.4 251 3 101240 67
2003-02-26 07:52:58 51°14.395 2°55.006 1.2 181 3 101240 67
2003-02-26 07:53:03 51°14.407 2°54.993 1.7 170 3 101240 67
2003-02-26 07:53:08 51°14.42 2°54.982 2.5 175 3 101240 67
2003-02-26 07:53:13 51°14.434 2°54.971 2.8 166 3.1 101230 67
2003-02-26 07:53:19 51°14.451 2°54.959 2.7 167 3.1 101230 67
2003-02-26 07:53:23 51°14.462 2°54.952 2.9 170 3.1 101230 67
2003-02-26 07:53:28 51°14.477 2°54.942 2.6 176 3.1 101230 67
2003-02-26 07:53:33 51°14.491 2°54.932 2.7 174 3.1 101230 66
2003-02-26 07:53:38 51°14.505 2°54.921 2.4 178 3.1 101230 66
2003-02-26 07:53:43 51°14.52 2°54.911 2.6 190 3.1 101230 67
2003-02-26 07:53:48 51°14.535 2°54.901 2.3 183 3.1 101230 67
2003-02-26 07:53:53 51°14.55 2°54.891 2.9 164 3.1 101230 67
2003-02-26 07:53:57 51°14.561 2°54.884 2.9 164 3.1 101230 67
2003-02-26 07:54:03 51°14.58 2°54.873 3 163 3.1 101230 67
2003-02-26 07:54:08 51°14.595 2°54.865 3.7 170 3.1 101230 67
2003-02-26 07:54:13 51°14.61 2°54.857 3.2 158 3.1 101230 67
2003-02-26 07:54:18 51°14.625 2°54.848 3.6 171 3.1 101230 67
2003-02-26 07:54:23 51°14.641 2°54.84 3.5 168 3.1 101230 66
2003-02-26 07:54:28 51°14.656 2°54.831 2.9 176 3.1 101230 66
2003-02-26 07:54:33 51°14.672 2°54.821 3.3 171 3.1 101230 66
2003-02-26 07:54:38 51°14.687 2°54.812 3.2 176 3.1 101230 66
2003-02-26 07:54:43 51°14.701 2°54.801 3.2 174 3.1 101230 66
2003-02-26 07:54:48 51°14.716 2°54.791 3.1 163 3.1 101230 66
2003-02-26 07:54:53 51°14.73 2°54.779 2.7 174 3.1 101230 66
2003-02-26 07:54:58 51°14.745 2°54.767 2.9 177 3.1 101230 66
2003-02-26 07:55:03 51°14.759 2°54.755 2.7 185 3.1 101230 66
2003-02-26 07:55:08 51°14.773 2°54.743 2.7 188 3.1 101230 66
2003-02-26 07:55:13 51°14.787 2°54.731 2.6 183 3.2 101230 67
2003-02-26 07:55:19 51°14.804 2°54.717 2.7 179 3.2 101230 67
2003-02-26 07:55:23 51°14.815 2°54.708 3.1 175 3.2 101230 67
2003-02-26 07:55:28 51°14.83 2°54.696 2.6 181 3.2 101230 67
2003-02-26 07:55:33 51°14.844 2°54.685 3 178 3.2 101230 68
2003-02-26 07:55:38 51°14.859 2°54.674 3.3 176 3.2 101230 68
2003-02-26 07:55:43 51°14.874 2°54.664 3.3 171 3.2 101230 68
2003-02-26 07:55:48 51°14.888 2°54.652 3.4 170 3.2 101230 68
2003-02-26 07:55:54 51°14.905 2°54.637 3 168 3.2 101230 68
2003-02-26 07:55:59 51°14.919 2°54.625 3.4 171 3.2 101230 68
2003-02-26 07:56:03 51°14.931 2°54.616 3.4 177 3.2 101230 67
2003-02-26 07:56:08 51°14.945 2°54.605 3.2 177 3.2 101230 67
2003-02-26 07:56:13 51°14.96 2°54.595 3.2 187 3.2 101230 67
2003-02-26 07:56:19 51°14.978 2°54.583 3.2 190 3.2 101230 67
2003-02-26 07:56:22 51°14.987 2°54.577 3.2 188 3.2 101230 68
2003-02-26 07:56:28 51°15.005 2°54.565 3.3 178 3.2 101230 68
2003-02-26 07:56:33 51°15.02 2°54.554 3.4 177 3.2 101230 68
2003-02-26 07:56:37 51°15.032 2°54.546 3 186 3.2 101230 68
2003-02-26 07:56:43 51°15.049 2°54.533 2.2 179 3.1 101220 68
2003-02-26 07:56:49 51°15.066 2°54.518 3.2 179 3.1 101220 68
2003-02-26 07:56:53 51°15.078 2°54.509 2.7 181 3.1 101230 68
2003-02-26 07:56:58 51°15.092 2°54.497 2.9 182 3.1 101230 68
2003-02-26 07:57:03 51°15.107 2°54.486 3.7 179 3.1 101230 68
2003-02-26 07:57:08 51°15.122 2°54.475 3.5 177 3.1 101230 68
2003-02-26 07:57:13 51°15.137 2°54.465 3.8 174 3.1 101230 68
2003-02-26 07:57:18 51°15.152 2°54.455 3.9 175 3.1 101230 68
2003-02-26 07:57:23 51°15.167 2°54.445 3.4 178 3.1 101230 68
2003-02-26 07:57:29 51°15.186 2°54.435 3.8 188 3.1 101230 68
2003-02-26 07:57:33 51°15.199 2°54.429 3.6 181 3.1 101230 68
2003-02-26 07:57:37 51°15.212 2°54.424 3.2 186 3.1 101230 68
2003-02-26 07:57:44 51°15.234 2°54.414 3.6 190 3.1 101230 68
2003-02-26 07:57:48 51°15.247 2°54.408 3.6 192 3.1 101230 68
2003-02-26 07:57:53 51°15.263 2°54.401 3.5 191 3 101230 68
2003-02-26 07:57:58 51°15.278 2°54.392 4 196 3 101230 68
2003-02-26 07:58:03 51°15.294 2°54.384 4 190 3.1 101230 69
2003-02-26 07:58:09 51°15.312 2°54.374 3 188 3.1 101230 69
2003-02-26 07:58:13 51°15.324 2°54.366 3.1 185 3 101230 69
2003-02-26 07:58:18 51°15.339 2°54.356 3.8 201 3 101230 69
2003-02-26 07:58:24 51°15.358 2°54.345 3.4 189 3 101240 69
2003-02-26 07:58:28 51°15.37 2°54.337 3.7 192 3 101240 69
2003-02-26 07:58:33 51°15.385 2°54.327 3.7 197 3 101230 69
2003-02-26 07:58:38 51°15.4 2°54.318 4.1 194 3 101230 69
2003-02-26 07:58:44 51°15.419 2°54.308 3.4 195 3 101230 69
2003-02-26 07:58:48 51°15.432 2°54.301 4.1 197 3 101230 69
2003-02-26 07:58:53 51°15.447 2°54.293 4.1 198 3 101230 69
2003-02-26 07:58:57 51°15.46 2°54.288 3.9 194 3 101230 69
2003-02-26 07:59:04 51°15.482 2°54.277 4 196 3 101230 70
2003-02-26 07:59:08 51°15.495 2°54.271 3.8 197 3 101230 70
2003-02-26 07:59:13 51°15.51 2°54.263 3.5 194 3.1 101230 70
2003-02-26 07:59:19 51°15.53 2°54.254 3.4 189 3.1 101230 70
2003-02-26 07:59:23 51°15.542 2°54.248 4.1 198 3.1 101230 70
2003-02-26 07:59:29 51°15.562 2°54.242 3.7 186 3.1 101230 70
2003-02-26 07:59:33 51°15.575 2°54.239 4 191 3.1 101230 70
2003-02-26 07:59:38 51°15.591 2°54.235 4.6 196 3.1 101230 70
2003-02-26 07:59:43 51°15.608 2°54.231 4.4 192 3.1 101230 70
2003-02-26 07:59:49 51°15.628 2°54.227 4.1 192 3.1 101230 70
2003-02-26 07:59:53 51°15.641 2°54.224 4.8 199 3.1 101230 69
2003-02-26 07:59:57 51°15.654 2°54.222 4.6 192 3.1 101230 69
2003-02-26 08:00:04 51°15.677 2°54.216 4.4 189 3.1 101230 70
2003-02-26 08:00:08 51°15.691 2°54.213 4.4 190 3.1 101230 70
2003-02-26 08:00:13 51°15.707 2°54.209 4.6 191 3.2 101230 70
2003-02-26 08:00:18 51°15.724 2°54.204 4.1 188 3.2 101230 70
2003-02-26 08:00:23 51°15.74 2°54.2 4 184 3.2 101230 70
2003-02-26 08:00:28 51°15.756 2°54.195 4 189 3.2 101230 70
2003-02-26 08:00:33 51°15.773 2°54.189 4 185 3.2 101220 70
2003-02-26 08:00:38 51°15.789 2°54.184 3.9 187 3.2 101220 70
2003-02-26 08:00:42 51°15.802 2°54.18 4.4 188 3.2 101230 70
2003-02-26 08:00:48 51°15.822 2°54.174 4.1 186 3.2 101230 70
2003-02-26 08:00:53 51°15.837 2°54.17 3.9 181 3.2 101230 70
2003-02-26 08:00:57 51°15.849 2°54.168 4.6 176 3.2 101230 70
2003-02-26 08:01:03 51°15.868 2°54.164 4.2 180 3.2 101230 70
2003-02-26 08:01:08 51°15.882 2°54.162 4.7 176 3.2 101230 70
2003-02-26 08:01:13 51°15.897 2°54.161 4.7 174 3.2 101230 70
2003-02-26 08:01:18 51°15.912 2°54.159 4.8 176 3.2 101230 70
2003-02-26 08:01:24 51°15.929 2°54.157 4.9 174 3.2 101230 70
2003-02-26 08:01:28 51°15.94 2°54.156 5 172 3.2 101230 70
2003-02-26 08:01:33 51°15.954 2°54.155 5.3 168 3.2 101230 70
2003-02-26 08:01:38 51°15.968 2°54.153 4.7 171 3.2 101230 70
2003-02-26 08:01:43 51°15.982 2°54.152 4.8 167 3.2 101220 70
2003-02-26 08:01:49 51°15.998 2°54.151 4.6 176 3.2 101220 70
2003-02-26 08:01:53 51°16.009 2°54.15 4.6 171 3.2 101230 70
2003-02-26 08:01:57 51°16.02 2°54.149 4.1 172 3.2 101230 70
2003-02-26 08:02:04 51°16.039 2°54.147 4.7 166 3.2 101230 69
2003-02-26 08:02:08 51°16.05 2°54.145 4.9 173 3.2 101230 69
2003-02-26 08:02:13 51°16.063 2°54.143 4.9 170 3.2 101230 70
2003-02-26 08:02:19 51°16.079 2°54.144 4.9 176 3.2 101230 70
2003-02-26 08:02:24 51°16.092 2°54.146 5.1 181 3.2 101230 70
2003-02-26 08:02:28 51°16.103 2°54.15 4.7 184 3.2 101230 70
2003-02-26 08:02:33 51°16.116 2°54.157 5.1 185 3.2 101220 70
2003-02-26 08:02:39 51°16.13 2°54.167 5.9 192 3.2 101220 70
2003-02-26 08:02:42 51°16.137 2°54.173 6.2 194 3.2 101230 70
2003-02-26 08:02:48 51°16.149 2°54.187 6.2 194 3.2 101230 70
2003-02-26 08:02:53 51°16.159 2°54.201 7.2 202 3.2 101230 70
2003-02-26 08:02:59 51°16.17 2°54.219 7.5 208 3.2 101230 70
2003-02-26 08:03:02 51°16.175 2°54.228 7.7 207 3.2 101220 70
2003-02-26 08:03:08 51°16.184 2°54.248 7.9 207 3.2 101220 70
2003-02-26 08:03:13 51°16.19 2°54.265 8.5 210 3.2 101220 70
2003-02-26 08:03:18 51°16.196 2°54.283 8.3 211 3.2 101220 70
2003-02-26 08:03:24 51°16.203 2°54.305 8.2 215 3.1 101220 70
2003-02-26 08:03:28 51°16.207 2°54.32 8.5 216 3.1 101220 70
2003-02-26 08:03:33 51°16.212 2°54.339 7.9 217 3.1 101220 70
2003-02-26 08:03:38 51°16.216 2°54.358 8.5 218 3.1 101220 70
2003-02-26 08:03:43 51°16.221 2°54.377 8.7 215 3.2 101220 70
2003-02-26 08:03:48 51°16.225 2°54.397 8.3 217 3.2 101220 70
2003-02-26 08:03:53 51°16.229 2°54.417 8.5 217 3.2 101220 71
2003-02-26 08:03:58 51°16.233 2°54.436 8.3 207 3.2 101220 71
2003-02-26 08:04:03 51°16.238 2°54.454 7.4 205 3.2 101220 71
2003-02-26 08:04:08 51°16.244 2°54.47 6.9 194 3.2 101220 71
2003-02-26 08:04:13 51°16.25 2°54.484 6.2 190 3.2 101220 71
2003-02-26 08:04:17 51°16.255 2°54.493 5.6 181 3.2 101220 71
2003-02-26 08:04:23 51°16.264 2°54.506 3.3 177 3.2 101220 70
2003-02-26 08:04:28 51°16.271 2°54.515 5.7 175 3.2 101220 70
2003-02-26 08:04:33 51°16.279 2°54.522 5.8 166 3.2 101220 69
2003-02-26 08:04:37 51°16.285 2°54.526 4.6 166 3.2 101220 69
2003-02-26 08:04:44 51°16.295 2°54.533 4.9 156 3.2 101220 69
2003-02-26 08:04:48 51°16.301 2°54.536 5.1 156 3.2 101220 69
2003-02-26 08:04:53 51°16.308 2°54.539 4.4 137 3.2 101220 70
2003-02-26 08:04:58 51°16.315 2°54.54 4.3 126 3.2 101220 70
2003-02-26 08:05:03 51°16.322 2°54.541 3.7 123 3.2 101230 70
2003-02-26 08:05:08 51°16.328 2°54.541 3.8 114 3.2 101230 70
2003-02-26 08:05:13 51°16.334 2°54.54 3.4 111 3.2 101230 70
2003-02-26 08:05:18 51°16.34 2°54.539 3.5 99 3.2 101230 70
2003-02-26 08:05:23 51°16.346 2°54.537 3.1 96 3.2 101230 70
2003-02-26 08:05:28 51°16.351 2°54.534 3.1 86 3.2 101230 70
2003-02-26 08:05:33 51°16.356 2°54.531 2.9 86 3.2 101230 70
2003-02-26 08:05:38 51°16.36 2°54.527 2.6 72 3.2 101230 70
2003-02-26 08:05:43 51°16.364 2°54.523 2.3 71 3.2 101240 70
2003-02-26 08:05:48 51°16.368 2°54.519 2.1 66 3.2 101240 70
2003-02-26 08:05:53 51°16.372 2°54.514 2.4 47 3.2 101230 70
2003-02-26 08:05:58 51°16.374 2°54.51 2.4 23 3.2 101230 70
2003-02-26 08:06:04 51°16.378 2°54.504 1.8 31 3.2 101230 70
2003-02-26 08:06:08 51°16.379 2°54.5 2.7 26 3.2 101230 70
2003-02-26 08:06:13 51°16.381 2°54.495 2.8 23 3.2 101240 70
2003-02-26 08:06:17 51°16.382 2°54.491 2.7 9 3.2 101240 70
2003-02-26 08:06:23 51°16.383 2°54.485 2.7 6 3.2 101230 70
2003-02-26 08:06:28 51°16.383 2°54.48 3.4 353 3.2 101230 70
2003-02-26 08:06:33 51°16.384 2°54.475 2.8 349 3.2 101240 70
2003-02-26 08:06:38 51°16.384 2°54.471 2.3 347 3.2 101240 70
2003-02-26 08:06:43 51°16.383 2°54.466 2.1 340 3.3 101240 70
2003-02-26 08:06:48 51°16.383 2°54.462 2 346 3.3 101240 70
2003-02-26 08:06:53 51°16.383 2°54.459 1.2 330 3.3 101230 70
2003-02-26 08:06:56 51°16.383 2°54.457 0.8 334 3.3 101230 70
2003-02-26 08:07:04 51°16.382 2°54.453 0.5 324 3.3 101230 70
2003-02-26 08:07:08 51°16.382 2°54.451 1.1 333 3.3 101230 70
2003-02-26 08:07:13 51°16.382 2°54.449 0.9 328 3.3 101230 69
2003-02-26 08:07:17 51°16.382 2°54.447 0.6 337 3.3 101230 69
2003-02-26 08:07:24 51°16.381 2°54.444 0.4 339 3.3 101240 69
2003-02-26 08:07:28 51°16.38 2°54.442 1.8 328 3.3 101240 69
2003-02-26 08:07:33 51°16.379 2°54.441 1.2 328 3.3 101240 70
2003-02-26 08:07:38 51°16.378 2°54.44 0.7 323 3.3 101240 70
2003-02-26 08:07:43 51°16.377 2°54.437 1.3 318 3.3 101240 70
2003-02-26 08:07:49 51°16.375 2°54.435 1.4 318 3.3 101240 70
2003-02-26 08:07:53 51°16.374 2°54.434 2.1 307 3.3 101230 70
2003-02-26 08:07:56 51°16.374 2°54.432 2.2 312 3.3 101230 70
2003-02-26 08:08:03 51°16.371 2°54.43 3 300 3.3 101230 70
2003-02-26 08:08:09 51°16.37 2°54.429 2.5 301 3.3 101230 70
2003-02-26 08:08:13 51°16.369 2°54.427 2.5 301 3.3 101230 70
2003-02-26 08:08:16 51°16.368 2°54.426 2.4 307 3.3 101230 70
2003-02-26 08:08:23 51°16.365 2°54.424 2.5 308 3.3 101230 70
2003-02-26 08:08:28 51°16.364 2°54.423 3 303 3.3 101230 70
2003-02-26 08:08:33 51°16.361 2°54.421 3.6 303 3.3 101230 70
2003-02-26 08:08:38 51°16.359 2°54.42 3.7 304 3.3 101230 70
2003-02-26 08:08:44 51°16.356 2°54.417 3 305 3.3 101230 70
2003-02-26 08:08:48 51°16.354 2°54.417 3.9 306 3.3 101230 70
2003-02-26 08:08:53 51°16.352 2°54.415 4.2 309 3.3 101230 70
2003-02-26 08:08:58 51°16.349 2°54.413 3.5 304 3.3 101230 70
2003-02-26 08:09:04 51°16.347 2°54.411 4.1 302 3.3 101230 70
2003-02-26 08:09:08 51°16.344 2°54.41 3.9 304 3.3 101230 70
2003-02-26 08:09:13 51°16.342 2°54.409 4.2 301 3.4 101230 70
2003-02-26 08:09:16 51°16.34 2°54.408 4.7 304 3.4 101230 70
2003-02-26 08:09:24 51°16.336 2°54.406 4 306 3.4 101230 70
2003-02-26 08:09:28 51°16.334 2°54.404 2.7 313 3.4 101230 70
2003-02-26 08:09:32 51°16.332 2°54.403 3.4 308 3.4 101230 70
2003-02-26 08:09:38 51°16.329 2°54.401 2.1 305 3.4 101230 70
2003-02-26 08:09:44 51°16.326 2°54.399 2.3 315 3.4 101230 70
2003-02-26 08:09:48 51°16.325 2°54.397 2 317 3.4 101230 70
2003-02-26 08:09:53 51°16.322 2°54.394 1.8 316 3.4 101230 70
2003-02-26 08:09:58 51°16.32 2°54.392 1.4 315 3.4 101230 70
2003-02-26 08:10:03 51°16.319 2°54.389 1.2 316 3.4 101230 70
2003-02-26 08:10:08 51°16.317 2°54.387 0.9 321 3.4 101230 70
2003-02-26 08:10:13 51°16.315 2°54.384 0.8 328 3.4 101230 70
2003-02-26 08:10:18 51°16.313 2°54.381 0.7 339 3.4 101230 70
2003-02-26 08:10:23 51°16.311 2°54.378 0.7 327 3.4 101230 70
2003-02-26 08:10:28 51°16.31 2°54.376 1.2 330 3.4 101230 70
2003-02-26 08:10:33 51°16.308 2°54.373 1.3 332 3.4 101230 70
2003-02-26 08:10:38 51°16.307 2°54.369 0.5 329 3.4 101230 70
2003-02-26 08:10:43 51°16.306 2°54.366 0.7 331 3.4 101230 70
2003-02-26 08:10:48 51°16.305 2°54.363 0.6 331 3.4 101230 70
2003-02-26 08:10:53 51°16.304 2°54.36 1.7 341 3.4 101230 70
2003-02-26 08:10:59 51°16.303 2°54.357 0.7 334 3.4 101230 70
2003-02-26 08:11:03 51°16.302 2°54.355 1 339 3.4 101230 70
2003-02-26 08:11:08 51°16.301 2°54.352 0.7 333 3.4 101230 70
2003-02-26 08:11:13 51°16.301 2°54.349 2 344 3.4 101230 70
2003-02-26 08:11:18 51°16.3 2°54.346 0.9 329 3.4 101230 70
2003-02-26 08:11:23 51°16.299 2°54.344 1.4 340 3.3 101230 70
2003-02-26 08:11:28 51°16.299 2°54.341 2.1 344 3.3 101230 70
2003-02-26 08:11:33 51°16.298 2°54.338 1.4 342 3.3 101230 69
2003-02-26 08:11:38 51°16.298 2°54.335 2.3 346 3.3 101230 69
2003-02-26 08:11:43 51°16.297 2°54.333 1.3 343 3.3 101230 70
2003-02-26 08:11:48 51°16.297 2°54.33 1.1 335 3.3 101230 70
2003-02-26 08:11:53 51°16.296 2°54.327 1.7 345 3.3 101230 70
2003-02-26 08:11:58 51°16.296 2°54.325 1.6 342 3.3 101230 70
2003-02-26 08:12:03 51°16.296 2°54.322 2.7 344 3.3 101230 70
2003-02-26 08:12:09 51°16.295 2°54.319 1.2 345 3.3 101230 70
2003-02-26 08:12:13 51°16.295 2°54.317 0.9 337 3.3 101230 70
2003-02-26 08:12:18 51°16.294 2°54.315 1.3 338 3.3 101230 70
2003-02-26 08:12:23 51°16.294 2°54.313 0.7 335 3.3 101230 70
2003-02-26 08:12:28 51°16.293 2°54.311 1.4 330 3.3 101230 70
2003-02-26 08:12:33 51°16.293 2°54.308 0.6 336 3.3 101230 70
2003-02-26 08:12:38 51°16.292 2°54.306 1.5 339 3.3 101230 70
2003-02-26 08:12:43 51°16.292 2°54.304 1.7 335 3.3 101230 70
2003-02-26 08:12:48 51°16.291 2°54.302 1.5 337 3.3 101230 70
2003-02-26 08:12:53 51°16.291 2°54.3 0.9 350 3.3 101230 70
2003-02-26 08:12:59 51°16.29 2°54.298 0.8 332 3.3 101230 70
2003-02-26 08:13:03 51°16.29 2°54.297 0.8 342 3.3 101230 70
2003-02-26 08:13:09 51°16.289 2°54.294 0.7 325 3.3 101230 70
2003-02-26 08:13:13 51°16.288 2°54.293 0.4 317 3.3 101230 70
2003-02-26 08:13:17 51°16.288 2°54.291 0.5 332 3.3 101230 70
2003-02-26 08:13:24 51°16.287 2°54.289 0.6 325 3.3 101230 70
2003-02-26 08:13:28 51°16.287 2°54.288 1.1 324 3.3 101230 70
2003-02-26 08:13:33 51°16.286 2°54.286 0.5 316 3.3 101230 70
2003-02-26 08:13:38 51°16.285 2°54.285 0.4 311 3.3 101230 70
2003-02-26 08:13:43 51°16.284 2°54.284 0.2 310 3.3 101230 69
2003-02-26 08:13:48 51°16.284 2°54.283 0.9 323 3.3 101230 69
2003-02-26 08:13:53 51°16.283 2°54.282 0.9 327 3.3 101230 70
2003-02-26 08:13:58 51°16.282 2°54.281 0.9 323 3.3 101230 70
2003-02-26 08:14:04 51°16.281 2°54.279 0.6 322 3.3 101230 70
2003-02-26 08:14:08 51°16.281 2°54.279 0.7 319 3.3 101230 70
2003-02-26 08:14:13 51°16.28 2°54.278 0.9 321 3.3 101230 70
2003-02-26 08:14:19 51°16.279 2°54.277 1 318 3.3 101230 70
2003-02-26 08:14:23 51°16.279 2°54.276 0.9 319 3.3 101230 70
2003-02-26 08:14:28 51°16.278 2°54.275 1.4 319 3.3 101230 70
2003-02-26 08:14:33 51°16.277 2°54.274 0.7 321 3.3 101230 70
2003-02-26 08:14:38 51°16.276 2°54.273 1.2 325 3.3 101230 70
2003-02-26 08:14:42 51°16.275 2°54.272 0.8 324 3.3 101230 70
2003-02-26 08:14:48 51°16.275 2°54.272 1.1 327 3.3 101230 70
2003-02-26 08:14:53 51°16.274 2°54.271 1.6 304 3.3 101230 71
2003-02-26 08:14:57 51°16.273 2°54.271 1.2 314 3.3 101230 71
2003-02-26 08:15:03 51°16.272 2°54.27 1.9 295 3.3 101230 71
2003-02-26 08:15:08 51°16.272 2°54.27 1.7 320 3.3 101230 71
2003-02-26 08:15:13 51°16.271 2°54.269 1.2 323 3.3 101230 70
2003-02-26 08:15:17 51°16.27 2°54.269 2 320 3.3 101230 70
2003-02-26 08:15:23 51°16.269 2°54.269 1.9 306 3.4 101230 70
2003-02-26 08:15:28 51°16.268 2°54.268 2.9 293 3.4 101230 70
2003-02-26 08:15:33 51°16.267 2°54.268 2 310 3.3 101230 71
2003-02-26 08:15:37 51°16.267 2°54.268 2 305 3.3 101230 71
2003-02-26 08:15:44 51°16.267 2°54.268 2.6 308 3.3 101230 71
2003-02-26 08:15:48 51°16.266 2°54.268 2.1 305 3.3 101230 71
2003-02-26 08:15:53 51°16.266 2°54.268 2.5 305 3.4 101230 71
2003-02-26 08:15:58 51°16.265 2°54.268 3.1 299 3.4 101230 71
2003-02-26 08:16:03 51°16.264 2°54.268 3.4 303 3.4 101230 71
2003-02-26 08:16:08 51°16.263 2°54.268 2.9 314 3.4 101230 71
2003-02-26 08:16:13 51°16.263 2°54.268 2.6 305 3.4 101230 70
2003-02-26 08:16:19 51°16.262 2°54.268 3.1 314 3.4 101230 70
2003-02-26 08:16:23 51°16.261 2°54.268 2.8 320 3.3 101230 70
2003-02-26 08:16:28 51°16.26 2°54.269 2.9 306 3.3 101230 70
2003-02-26 08:16:33 51°16.259 2°54.269 2.8 308 3.4 101230 70
2003-02-26 08:16:37 51°16.259 2°54.269 2.5 307 3.4 101230 70
2003-02-26 08:16:44 51°16.257 2°54.27 3.1 305 3.3 101230 70
2003-02-26 08:16:48 51°16.257 2°54.27 3.2 312 3.3 101230 70
2003-02-26 08:16:53 51°16.256 2°54.27 2.8 305 3.3 101230 70
2003-02-26 08:16:58 51°16.255 2°54.27 3.9 307 3.3 101230 70
2003-02-26 08:17:03 51°16.254 2°54.271 3.5 304 3.4 101230 70
2003-02-26 08:17:09 51°16.253 2°54.271 3.6 309 3.4 101230 70
2003-02-26 08:17:13 51°16.252 2°54.272 3.7 301 3.4 101230 70
2003-02-26 08:17:19 51°16.252 2°54.272 3.5 300 3.4 101230 70
2003-02-26 08:17:23 51°16.251 2°54.273 3.5 303 3.4 101230 71
2003-02-26 08:17:28 51°16.25 2°54.273 3.5 304 3.4 101230 71
2003-02-26 08:17:33 51°16.249 2°54.274 3.8 301 3.4 101230 70
2003-02-26 08:17:37 51°16.249 2°54.274 4 305 3.4 101230 70
2003-02-26 08:17:43 51°16.248 2°54.275 3.7 301 3.4 101230 70
2003-02-26 08:17:48 51°16.247 2°54.275 4 308 3.4 101230 70
2003-02-26 08:17:53 51°16.246 2°54.276 3.9 297 3.4 101230 70
2003-02-26 08:17:58 51°16.245 2°54.276 4 309 3.4 101230 70
2003-02-26 08:18:04 51°16.245 2°54.277 4 299 3.3 101230 70
2003-02-26 08:18:08 51°16.244 2°54.278 4.6 299 3.3 101230 70
2003-02-26 08:18:13 51°16.243 2°54.278 4.5 299 3.4 101230 70
2003-02-26 08:18:19 51°16.242 2°54.279 4 304 3.4 101230 70
2003-02-26 08:18:23 51°16.242 2°54.28 3.4 307 3.4 101230 70
2003-02-26 08:18:28 51°16.241 2°54.281 3.9 302 3.4 101230 70
2003-02-26 08:18:33 51°16.241 2°54.281 3.8 306 3.4 101230 70
2003-02-26 08:18:37 51°16.24 2°54.282 3.6 304 3.4 101230 70
2003-02-26 08:18:43 51°16.239 2°54.283 4.1 301 3.4 101230 71
2003-02-26 08:18:48 51°16.238 2°54.284 3.8 304 3.4 101230 71
2003-02-26 08:18:53 51°16.238 2°54.284 4.4 298 3.4 101230 71
2003-02-26 08:18:57 51°16.237 2°54.285 4.2 297 3.4 101230 71
2003-02-26 08:19:03 51°16.236 2°54.286 5.2 299 3.4 101230 71
2003-02-26 08:19:08 51°16.235 2°54.287 4.9 302 3.4 101230 71
2003-02-26 08:19:13 51°16.234 2°54.288 5.1 300 3.4 101230 71
2003-02-26 08:19:17 51°16.234 2°54.288 4.7 301 3.4 101230 71
2003-02-26 08:19:24 51°16.233 2°54.29 4.5 304 3.4 101230 71
2003-02-26 08:19:28 51°16.232 2°54.291 4.8 300 3.4 101230 71
2003-02-26 08:19:33 51°16.231 2°54.291 5.6 298 3.4 101230 70
2003-02-26 08:19:37 51°16.23 2°54.292 5.3 297 3.4 101230 70
2003-02-26 08:19:43 51°16.23 2°54.293 4.8 299 3.4 101230 70
2003-02-26 08:19:48 51°16.229 2°54.294 5.5 296 3.4 101230 70
2003-02-26 08:19:53 51°16.228 2°54.295 5.3 299 3.4 101230 70
2003-02-26 08:19:57 51°16.228 2°54.296 5.6 298 3.4 101230 70
2003-02-26 08:20:04 51°16.227 2°54.298 5.1 299 3.4 101230 70
2003-02-26 08:20:08 51°16.226 2°54.298 5.6 301 3.4 101230 70
2003-02-26 08:20:13 51°16.225 2°54.299 5.6 300 3.4 101220 70
2003-02-26 08:20:18 51°16.225 2°54.3 4.3 302 3.4 101220 70
2003-02-26 08:20:23 51°16.224 2°54.302 5.8 298 3.4 101230 70
2003-02-26 08:20:29 51°16.223 2°54.303 4.9 293 3.4 101230 70
2003-02-26 08:20:33 51°16.222 2°54.304 5.4 299 3.4 101230 70
2003-02-26 08:20:37 51°16.222 2°54.305 4.9 293 3.4 101230 70
2003-02-26 08:20:43 51°16.221 2°54.306 5.4 297 3.4 101230 70
2003-02-26 08:20:48 51°16.22 2°54.307 5.7 292 3.4 101230 70
2003-02-26 08:20:53 51°16.219 2°54.308 5.6 295 3.4 101230 70
2003-02-26 08:20:59 51°16.218 2°54.31 5.4 294 3.4 101230 70
2003-02-26 08:21:04 51°16.218 2°54.311 5.1 297 3.4 101230 71
2003-02-26 08:21:08 51°16.217 2°54.312 5.4 297 3.4 101230 71
2003-02-26 08:21:13 51°16.216 2°54.313 5.1 305 3.4 101230 70
2003-02-26 08:21:18 51°16.215 2°54.314 5.6 299 3.4 101230 70
2003-02-26 08:21:23 51°16.215 2°54.315 5.5 297 3.4 101230 70
2003-02-26 08:21:28 51°16.214 2°54.317 5.2 293 3.4 101230 70
2003-02-26 08:21:33 51°16.213 2°54.318 5.8 297 3.4 101230 70
2003-02-26 08:21:38 51°16.212 2°54.32 5.1 289 3.4 101230 70
2003-02-26 08:21:44 51°16.212 2°54.321 5.3 289 3.4 101230 70
2003-02-26 08:21:48 51°16.211 2°54.322 5.4 289 3.4 101230 70
2003-02-26 08:21:53 51°16.211 2°54.323 5.5 291 3.4 101230 70
2003-02-26 08:21:57 51°16.21 2°54.324 5.2 292 3.4 101230 70
2003-02-26 08:22:03 51°16.209 2°54.326 5.3 291 3.4 101230 70
2003-02-26 08:22:08 51°16.209 2°54.327 5.2 293 3.4 101230 70
2003-02-26 08:22:13 51°16.208 2°54.329 5.5 292 3.4 101230 70
2003-02-26 08:22:18 51°16.207 2°54.33 5.5 291 3.4 101230 70
2003-02-26 08:22:24 51°16.206 2°54.332 5.5 290 3.4 101230 70
2003-02-26 08:22:28 51°16.206 2°54.333 5.7 288 3.4 101230 70
2003-02-26 08:22:33 51°16.204 2°54.334 5.7 287 3.4 101230 70
2003-02-26 08:22:37 51°16.202 2°54.335 6 282 3.4 101230 70
2003-02-26 08:22:43 51°16.199 2°54.337 6.3 280 3.4 101220 70
2003-02-26 08:22:48 51°16.195 2°54.338 6.5 277 3.4 101220 70
2003-02-26 08:22:53 51°16.191 2°54.34 6.8 279 3.4 101230 70
2003-02-26 08:22:57 51°16.187 2°54.341 6.7 278 3.4 101230 70
2003-02-26 08:23:04 51°16.18 2°54.342 6.8 277 3.5 101220 70
2003-02-26 08:23:08 51°16.175 2°54.343 7 274 3.5 101220 70
2003-02-26 08:23:13 51°16.169 2°54.344 6.7 278 3.5 101230 70
2003-02-26 08:23:18 51°16.162 2°54.344 7.2 281 3.5 101230 70
2003-02-26 08:23:23 51°16.155 2°54.343 6.8 282 3.4 101220 69
2003-02-26 08:23:28 51°16.148 2°54.341 6.7 285 3.4 101220 69
2003-02-26 08:23:33 51°16.141 2°54.338 6.7 285 3.5 101220 69
2003-02-26 08:23:37 51°16.135 2°54.336 6.6 288 3.5 101220 69
2003-02-26 08:23:43 51°16.126 2°54.33 6.4 288 3.5 101220 69
2003-02-26 08:23:49 51°16.117 2°54.323 6.3 289 3.5 101220 69
2003-02-26 08:23:53 51°16.111 2°54.316 6 293 3.5 101220 69
2003-02-26 08:23:58 51°16.104 2°54.308 5.5 288 3.5 101220 69
2003-02-26 08:24:03 51°16.097 2°54.298 5.4 294 3.5 101220 70
2003-02-26 08:24:08 51°16.09 2°54.287 5.3 294 3.5 101220 70
2003-02-26 08:24:13 51°16.085 2°54.274 5.6 303 3.5 101230 70
2003-02-26 08:24:18 51°16.08 2°54.261 4.5 304 3.5 101230 70
2003-02-26 08:24:23 51°16.076 2°54.246 4.1 305 3.5 101230 70
2003-02-26 08:24:29 51°16.072 2°54.227 3.5 306 3.5 101230 70
2003-02-26 08:24:33 51°16.07 2°54.214 3.4 307 3.5 101230 70
2003-02-26 08:24:37 51°16.068 2°54.199 3.4 304 3.5 101230 70
2003-02-26 08:24:44 51°16.066 2°54.173 3.6 301 3.5 101230 70
2003-02-26 08:24:48 51°16.066 2°54.158 3 300 3.5 101230 70
2003-02-26 08:24:53 51°16.066 2°54.137 2.8 292 3.5 101230 70
2003-02-26 08:24:57 51°16.067 2°54.121 3.2 285 3.5 101230 70
2003-02-26 08:25:03 51°16.068 2°54.095 3.3 293 3.5 101230 70
2003-02-26 08:25:08 51°16.069 2°54.073 3.5 286 3.5 101230 70
2003-02-26 08:25:13 51°16.069 2°54.051 3.2 281 3.5 101230 70
2003-02-26 08:25:18 51°16.07 2°54.027 3.3 283 3.5 101230 70
2003-02-26 08:25:23 51°16.07 2°54.003 3.7 288 3.5 101230 70
2003-02-26 08:25:28 51°16.071 2°53.977 3.2 282 3.5 101230 70
2003-02-26 08:25:32 51°16.073 2°53.956 3.2 280 3.5 101220 70
2003-02-26 08:25:39 51°16.078 2°53.918 3.1 260 3.5 101220 70
2003-02-26 08:25:44 51°16.083 2°53.892 2.9 256 3.5 101220 70
2003-02-26 08:25:48 51°16.088 2°53.87 2.8 252 3.5 101220 70
2003-02-26 08:25:53 51°16.095 2°53.843 2.4 259 3.5 101230 69
2003-02-26 08:25:58 51°16.102 2°53.816 1.9 245 3.5 101230 69
2003-02-26 08:26:03 51°16.11 2°53.79 2.4 234 3.5 101230 70
2003-02-26 08:26:08 51°16.119 2°53.764 2.3 247 3.5 101230 70
2003-02-26 08:26:13 51°16.128 2°53.738 2.2 237 3.5 101230 70
2003-02-26 08:26:18 51°16.137 2°53.712 2.6 231 3.5 101230 70
2003-02-26 08:26:23 51°16.148 2°53.688 2.7 223 3.5 101230 70
2003-02-26 08:26:29 51°16.162 2°53.659 3 220 3.5 101230 70
2003-02-26 08:26:33 51°16.171 2°53.64 2.6 220 3.5 101230 70
2003-02-26 08:26:39 51°16.186 2°53.612 2.8 221 3.5 101230 70
2003-02-26 08:26:44 51°16.198 2°53.589 2.7 211 3.5 101220 70
2003-02-26 08:26:48 51°16.209 2°53.57 2.7 207 3.5 101220 70
2003-02-26 08:26:53 51°16.222 2°53.548 2.8 207 3.5 101230 70
2003-02-26 08:26:58 51°16.236 2°53.528 3 202 3.5 101230 70
2003-02-26 08:27:03 51°16.251 2°53.508 2.9 210 3.5 101230 70
2003-02-26 08:27:08 51°16.266 2°53.487 3.2 194 3.5 101230 70
2003-02-26 08:27:12 51°16.278 2°53.472 2.8 207 3.5 101230 69
2003-02-26 08:27:19 51°16.3 2°53.445 3.1 202 3.5 101230 69
2003-02-26 08:27:24 51°16.315 2°53.426 3.5 200 3.5 101230 69
2003-02-26 08:27:28 51°16.328 2°53.412 4.2 207 3.5 101230 69
2003-02-26 08:27:33 51°16.344 2°53.393 3.6 204 3.5 101230 69
2003-02-26 08:27:38 51°16.36 2°53.375 3.5 205 3.5 101230 69
2003-02-26 08:27:43 51°16.376 2°53.356 3.6 205 3.5 101230 69
2003-02-26 08:27:48 51°16.392 2°53.338 3.7 204 3.5 101230 69
2003-02-26 08:27:53 51°16.408 2°53.32 3.6 206 3.5 101230 70
2003-02-26 08:27:59 51°16.427 2°53.298 3.8 200 3.5 101230 70
2003-02-26 08:28:04 51°16.443 2°53.28 3.6 194 3.5 101220 70
2003-02-26 08:28:08 51°16.456 2°53.267 3.4 200 3.5 101220 70
2003-02-26 08:28:13 51°16.472 2°53.249 4.4 206 3.5 101230 70
2003-02-26 08:28:19 51°16.492 2°53.227 4 207 3.5 101230 70
2003-02-26 08:28:23 51°16.505 2°53.213 4.1 205 3.5 101230 69
2003-02-26 08:28:28 51°16.521 2°53.195 3.7 200 3.5 101230 69
2003-02-26 08:28:33 51°16.537 2°53.177 3.7 215 3.4 101230 70
2003-02-26 08:28:37 51°16.55 2°53.162 4.8 213 3.4 101230 70
2003-02-26 08:28:44 51°16.572 2°53.137 4.1 210 3.4 101230 70
2003-02-26 08:28:48 51°16.586 2°53.124 4 209 3.4 101230 70
2003-02-26 08:28:53 51°16.602 2°53.106 4.6 206 3.5 101230 71
2003-02-26 08:28:58 51°16.619 2°53.089 4.4 208 3.5 101230 71
2003-02-26 08:29:03 51°16.635 2°53.072 4.2 207 3.5 101220 71
2003-02-26 08:29:08 51°16.652 2°53.056 4.8 205 3.5 101220 71
2003-02-26 08:29:13 51°16.669 2°53.039 4.5 204 3.5 101220 71
2003-02-26 08:29:18 51°16.685 2°53.022 4.4 204 3.5 101220 71
2003-02-26 08:29:23 51°16.702 2°53.006 3.9 200 3.5 101230 71
2003-02-26 08:29:29 51°16.722 2°52.986 4.2 203 3.5 101230 71
2003-02-26 08:29:33 51°16.735 2°52.972 4.4 205 3.4 101230 70
2003-02-26 08:29:37 51°16.749 2°52.959 3.9 204 3.4 101230 70
2003-02-26 08:29:44 51°16.772 2°52.936 4.6 208 3.4 101230 70
2003-02-26 08:29:48 51°16.785 2°52.922 4.3 206 3.4 101230 70
2003-02-26 08:29:53 51°16.802 2°52.906 4.1 205 3.4 101230 70
2003-02-26 08:29:58 51°16.818 2°52.889 4.8 207 3.4 101230 70
2003-02-26 08:30:04 51°16.838 2°52.869 4.2 207 3.4 101230 70
2003-02-26 08:30:08 51°16.851 2°52.856 3.8 200 3.4 101230 70
2003-02-26 08:30:13 51°16.868 2°52.84 3.7 204 3.4 101230 70
2003-02-26 08:30:18 51°16.884 2°52.823 4.3 205 3.4 101230 70
2003-02-26 08:30:24 51°16.904 2°52.803 3.8 202 3.4 101230 70
2003-02-26 08:30:28 51°16.917 2°52.79 4.1 204 3.4 101230 70
2003-02-26 08:30:33 51°16.933 2°52.773 4.7 215 3.4 101230 70
2003-02-26 08:30:37 51°16.947 2°52.759 4.6 209 3.4 101230 70
2003-02-26 08:30:43 51°16.967 2°52.739 4.8 210 3.4 101220 70
2003-02-26 08:30:48 51°16.983 2°52.722 4.6 212 3.4 101220 70
2003-02-26 08:30:52 51°16.996 2°52.708 4.5 206 3.5 101230 71
2003-02-26 08:30:57 51°17.013 2°52.691 4.7 208 3.5 101230 71
2003-02-26 08:31:04 51°17.036 2°52.668 4.4 208 3.5 101230 71
2003-02-26 08:31:08 51°17.05 2°52.655 4.3 210 3.5 101230 71
2003-02-26 08:31:13 51°17.067 2°52.638 4.2 206 3.5 101230 71
2003-02-26 08:31:19 51°17.087 2°52.618 4.1 207 3.5 101230 71
2003-02-26 08:31:23 51°17.1 2°52.604 3.9 206 3.5 101220 71
2003-02-26 08:31:28 51°17.117 2°52.587 3.9 200 3.5 101220 71
2003-02-26 08:31:33 51°17.133 2°52.571 3.9 201 3.5 101220 71
2003-02-26 08:31:38 51°17.15 2°52.554 4.2 202 3.5 101220 71
2003-02-26 08:31:44 51°17.17 2°52.533 4.3 203 3.5 101220 71
2003-02-26 08:31:49 51°17.186 2°52.516 4.3 202 3.5 101220 71
2003-02-26 08:31:53 51°17.199 2°52.502 3.9 194 3.5 101220 71
2003-02-26 08:31:58 51°17.216 2°52.485 3.6 196 3.5 101220 71
2003-02-26 08:32:04 51°17.236 2°52.464 3.7 198 3.5 101220 71
2003-02-26 08:32:08 51°17.249 2°52.45 4 204 3.5 101220 71
2003-02-26 08:32:13 51°17.265 2°52.433 3.3 201 3.5 101220 71
2003-02-26 08:32:19 51°17.285 2°52.412 3.4 199 3.5 101220 71
2003-02-26 08:32:24 51°17.302 2°52.395 3.8 203 3.4 101220 71
2003-02-26 08:32:28 51°17.315 2°52.381 3.5 195 3.4 101220 71
2003-02-26 08:32:33 51°17.331 2°52.364 3.6 191 3.5 101230 71
2003-02-26 08:32:38 51°17.348 2°52.347 3.2 195 3.5 101230 71
2003-02-26 08:32:43 51°17.365 2°52.329 3.5 200 3.5 101220 71
2003-02-26 08:32:48 51°17.381 2°52.312 3.5 202 3.5 101220 71
2003-02-26 08:32:53 51°17.397 2°52.294 3.2 195 3.4 101220 71
2003-02-26 08:32:58 51°17.414 2°52.277 3.4 194 3.4 101220 71
2003-02-26 08:33:03 51°17.431 2°52.26 3.8 198 3.5 101220 71
2003-02-26 08:33:09 51°17.451 2°52.24 3.5 197 3.5 101220 71
2003-02-26 08:33:13 51°17.464 2°52.227 3.3 193 3.5 101220 71
2003-02-26 08:33:18 51°17.481 2°52.21 3.9 197 3.5 101220 71
2003-02-26 08:33:23 51°17.499 2°52.195 3.9 196 3.4 101220 71
2003-02-26 08:33:28 51°17.516 2°52.18 3.8 192 3.4 101220 71
2003-02-26 08:33:33 51°17.534 2°52.166 3.9 198 3.4 101220 71
2003-02-26 08:33:37 51°17.547 2°52.154 4 195 3.4 101220 71
2003-02-26 08:33:44 51°17.572 2°52.134 3.6 189 3.5 101220 71
2003-02-26 08:33:48 51°17.586 2°52.122 3.4 187 3.5 101220 71
2003-02-26 08:33:53 51°17.604 2°52.108 3.7 195 3.5 101220 71
2003-02-26 08:33:59 51°17.626 2°52.092 3.8 197 3.5 101220 71
2003-02-26 08:34:03 51°17.64 2°52.08 4 189 3.5 101220 71
2003-02-26 08:34:09 51°17.661 2°52.064 3.5 191 3.5 101220 71
2003-02-26 08:34:13 51°17.676 2°52.052 3.8 192 3.5 101220 71
2003-02-26 08:34:19 51°17.697 2°52.035 3.7 194 3.5 101220 71
2003-02-26 08:34:24 51°17.715 2°52.021 4 195 3.5 101220 71
2003-02-26 08:34:28 51°17.729 2°52.01 3.9 197 3.5 101220 71
2003-02-26 08:34:33 51°17.747 2°51.996 4.2 198 3.5 101220 71
2003-02-26 08:34:39 51°17.768 2°51.978 4.2 194 3.5 101220 71
2003-02-26 08:34:43 51°17.782 2°51.967 3.8 194 3.5 101220 71
2003-02-26 08:34:48 51°17.8 2°51.953 3.8 196 3.5 101220 71
2003-02-26 08:34:52 51°17.814 2°51.941 4.1 202 3.5 101220 71
2003-02-26 08:34:58 51°17.836 2°51.924 4.4 201 3.5 101220 71
2003-02-26 08:35:04 51°17.857 2°51.907 4.4 200 3.5 101220 71
2003-02-26 08:35:08 51°17.871 2°51.896 4.1 203 3.5 101220 71
2003-02-26 08:35:13 51°17.889 2°51.882 4.2 196 3.5 101220 71
2003-02-26 08:35:18 51°17.907 2°51.867 4.7 197 3.5 101220 71
2003-02-26 08:35:23 51°17.925 2°51.853 4.5 196 3.5 101220 72
2003-02-26 08:35:28 51°17.942 2°51.839 4 195 3.5 101220 72
2003-02-26 08:35:32 51°17.957 2°51.828 4.5 199 3.5 101220 72
2003-02-26 08:35:39 51°17.981 2°51.808 3.9 190 3.5 101220 72
2003-02-26 08:35:44 51°17.999 2°51.794 4.1 195 3.5 101220 72
2003-02-26 08:35:48 51°18.013 2°51.783 4.5 198 3.5 101220 72
2003-02-26 08:35:53 51°18.031 2°51.769 4.2 193 3.5 101220 72
2003-02-26 08:35:58 51°18.049 2°51.755 3.9 188 3.5 101220 72
2003-02-26 08:36:04 51°18.071 2°51.738 4.6 196 3.5 101220 72
2003-02-26 08:36:08 51°18.085 2°51.727 4.1 191 3.5 101220 72
2003-02-26 08:36:13 51°18.103 2°51.713 4.2 191 3.5 101220 72
2003-02-26 08:36:19 51°18.125 2°51.698 4.2 185 3.5 101220 72
2003-02-26 08:36:23 51°18.14 2°51.688 5 194 3.5 101220 72
2003-02-26 08:36:29 51°18.162 2°51.674 4.1 193 3.5 101220 72
2003-02-26 08:36:33 51°18.177 2°51.665 4.4 190 3.5 101220 72
2003-02-26 08:36:39 51°18.2 2°51.653 4.5 193 3.5 101220 72
2003-02-26 08:36:44 51°18.218 2°51.641 4.8 193 3.5 101210 72
2003-02-26 08:36:48 51°18.233 2°51.632 5 197 3.5 101210 72
2003-02-26 08:36:53 51°18.251 2°51.62 5 192 3.5 101220 72
2003-02-26 08:36:58 51°18.27 2°51.609 4.8 195 3.5 101220 72
2003-02-26 08:37:03 51°18.289 2°51.597 4.8 199 3.5 101220 72
2003-02-26 08:37:08 51°18.307 2°51.585 5.1 196 3.5 101220 72
2003-02-26 08:37:13 51°18.326 2°51.573 4.4 190 3.5 101220 72
2003-02-26 08:37:19 51°18.348 2°51.559 4.3 198 3.5 101220 72
2003-02-26 08:37:23 51°18.362 2°51.551 4.8 196 3.5 101220 73
2003-02-26 08:37:28 51°18.38 2°51.541 4.1 183 3.5 101220 73
2003-02-26 08:37:33 51°18.397 2°51.531 4 190 3.5 101210 73
2003-02-26 08:37:38 51°18.414 2°51.521 4.3 195 3.5 101210 73
2003-02-26 08:37:43 51°18.431 2°51.511 4.4 192 3.5 101220 73
2003-02-26 08:37:49 51°18.45 2°51.497 3.4 186 3.5 101220 73
2003-02-26 08:37:53 51°18.462 2°51.486 3.4 194 3.5 101220 73
2003-02-26 08:37:58 51°18.476 2°51.471 3.2 202 3.5 101220 73
2003-02-26 08:38:03 51°18.489 2°51.455 2.4 193 3.5 101220 73
2003-02-26 08:38:08 51°18.5 2°51.437 1.6 198 3.5 101220 73
2003-02-26 08:38:13 51°18.509 2°51.42 1.2 197 3.6 101220 73
2003-02-26 08:38:18 51°18.516 2°51.402 0.8 223 3.6 101220 73
2003-02-26 08:38:24 51°18.522 2°51.381 0.7 258 3.6 101220 74
2003-02-26 08:38:28 51°18.525 2°51.367 1.2 286 3.6 101220 74
2003-02-26 08:38:33 51°18.527 2°51.35 1.8 290 3.6 101220 74
2003-02-26 08:38:38 51°18.527 2°51.335 2.9 299 3.6 101220 74
2003-02-26 08:38:44 51°18.525 2°51.318 3.4 301 3.6 101220 74
2003-02-26 08:38:48 51°18.523 2°51.308 2.8 300 3.6 101220 74
2003-02-26 08:38:53 51°18.519 2°51.296 3.6 300 3.6 101220 74
2003-02-26 08:38:58 51°18.516 2°51.285 4.3 298 3.6 101220 74
2003-02-26 08:39:02 51°18.513 2°51.276 3.7 298 3.6 101220 74
2003-02-26 08:39:08 51°18.509 2°51.262 2.6 307 3.6 101220 74
2003-02-26 08:39:13 51°18.506 2°51.25 2 322 3.6 101220 74
2003-02-26 08:39:19 51°18.504 2°51.237 1 341 3.6 101220 74
2003-02-26 08:39:24 51°18.503 2°51.226 0.6 331 3.6 101220 74
2003-02-26 08:39:28 51°18.502 2°51.217 0.5 330 3.6 101220 74
2003-02-26 08:39:32 51°18.502 2°51.209 0.4 336 3.6 101220 74
2003-02-26 08:39:38 51°18.501 2°51.196 1.5 344 3.6 101220 74
2003-02-26 08:39:44 51°18.501 2°51.184 0.5 344 3.6 101220 74
2003-02-26 08:39:48 51°18.501 2°51.176 0.8 342 3.6 101220 74
2003-02-26 08:39:53 51°18.501 2°51.167 1.6 345 3.6 101220 74
2003-02-26 08:39:57 51°18.501 2°51.159 1.7 342 3.6 101220 74
2003-02-26 08:40:04 51°18.501 2°51.147 0.9 329 3.6 101220 74
2003-02-26 08:40:08 51°18.501 2°51.14 1 324 3.6 101220 74
2003-02-26 08:40:13 51°18.501 2°51.132 1 326 3.6 101220 74
2003-02-26 08:40:17 51°18.5 2°51.126 0.7 322 3.6 101220 74
2003-02-26 08:40:23 51°18.499 2°51.117 0.8 322 3.6 101220 73
2003-02-26 08:40:29 51°18.497 2°51.108 0.9 336 3.6 101220 73
2003-02-26 08:40:33 51°18.496 2°51.102 0.7 329 3.6 101220 73
2003-02-26 08:40:38 51°18.495 2°51.096 0.9 317 3.6 101220 73
2003-02-26 08:40:43 51°18.494 2°51.089 0.7 328 3.6 101220 73
2003-02-26 08:40:48 51°18.492 2°51.083 0.9 332 3.6 101220 73
2003-02-26 08:40:53 51°18.491 2°51.076 0.8 323 3.6 101220 73
2003-02-26 08:40:59 51°18.489 2°51.069 0.4 323 3.6 101220 73
2003-02-26 08:41:04 51°18.488 2°51.063 0.9 316 3.7 101220 73
2003-02-26 08:41:08 51°18.487 2°51.058 0.6 328 3.7 101220 73
2003-02-26 08:41:13 51°18.486 2°51.053 0.3 328 3.7 101220 73
2003-02-26 08:41:18 51°18.485 2°51.048 0.9 340 3.7 101220 73
2003-02-26 08:41:23 51°18.485 2°51.045 0.7 334 3.6 101220 73
2003-02-26 08:41:29 51°18.484 2°51.041 0.6 328 3.6 101220 73
2003-02-26 08:41:33 51°18.483 2°51.039 0.7 319 3.7 101220 73
2003-02-26 08:41:39 51°18.483 2°51.037 1.4 332 3.7 101220 73
2003-02-26 08:41:44 51°18.482 2°51.035 0.7 324 3.7 101220 73
2003-02-26 08:41:48 51°18.482 2°51.034 1.1 323 3.7 101220 73
2003-02-26 08:41:53 51°18.481 2°51.032 0.9 316 3.7 101220 73
2003-02-26 08:41:58 51°18.481 2°51.031 0.8 327 3.7 101220 73
2003-02-26 08:42:03 51°18.48 2°51.029 0.9 317 3.6 101210 73
2003-02-26 08:42:08 51°18.48 2°51.028 0.9 324 3.6 101210 73
2003-02-26 08:42:12 51°18.479 2°51.027 0.6 330 3.7 101220 73
2003-02-26 08:42:17 51°18.479 2°51.026 0.8 318 3.7 101220 73
2003-02-26 08:42:24 51°18.478 2°51.025 1.5 306 3.6 101210 72
2003-02-26 08:42:28 51°18.477 2°51.024 1.3 326 3.6 101210 72
2003-02-26 08:42:34 51°18.477 2°51.023 1.3 316 3.7 101220 72
2003-02-26 08:42:37 51°18.477 2°51.023 1 314 3.7 101220 72
2003-02-26 08:42:43 51°18.476 2°51.022 1 319 3.6 101220 72
2003-02-26 08:42:48 51°18.476 2°51.021 1 317 3.6 101220 72
2003-02-26 08:42:53 51°18.475 2°51.021 1.7 317 3.6 101220 72
2003-02-26 08:42:57 51°18.475 2°51.02 1.8 322 3.6 101220 72
2003-02-26 08:43:03 51°18.474 2°51.019 1.4 313 3.6 101220 72
2003-02-26 08:43:08 51°18.474 2°51.019 1.5 317 3.6 101220 72
2003-02-26 08:43:14 51°18.474 2°51.018 1.7 317 3.6 101220 71
2003-02-26 08:43:17 51°18.473 2°51.018 1.2 310 3.6 101220 71
2003-02-26 08:43:24 51°18.473 2°51.018 2 325 3.6 101220 72
2003-02-26 08:43:28 51°18.473 2°51.018 1 327 3.6 101220 72
2003-02-26 08:43:32 51°18.473 2°51.018 1.4 336 3.7 101220 72
2003-02-26 08:43:37 51°18.472 2°51.017 1.9 317 3.7 101220 72
2003-02-26 08:43:43 51°18.472 2°51.017 0.6 317 3.7 101220 72
2003-02-26 08:43:48 51°18.472 2°51.017 0.5 319 3.7 101220 72
2003-02-26 08:43:53 51°18.472 2°51.017 1.1 316 3.7 101220 71
2003-02-26 08:43:57 51°18.472 2°51.017 2.4 303 3.7 101220 71
2003-02-26 08:44:03 51°18.471 2°51.018 2 316 3.7 101220 71
2003-02-26 08:44:08 51°18.471 2°51.018 0.9 318 3.7 101220 71
2003-02-26 08:44:13 51°18.471 2°51.018 1.9 316 3.7 101220 72
2003-02-26 08:44:19 51°18.471 2°51.018 1.9 319 3.7 101220 72
2003-02-26 08:44:24 51°18.471 2°51.018 1.8 325 3.7 101220 72
2003-02-26 08:44:28 51°18.471 2°51.019 1.9 307 3.7 101220 72
2003-02-26 08:44:33 51°18.471 2°51.019 1.5 319 3.7 101220 72
2003-02-26 08:44:39 51°18.471 2°51.019 1.8 319 3.7 101220 72
2003-02-26 08:44:44 51°18.47 2°51.02 1.7 318 3.7 101220 72
2003-02-26 08:44:49 51°18.47 2°51.02 2.1 321 3.7 101220 72
2003-02-26 08:44:53 51°18.47 2°51.02 1.3 317 3.7 101220 72
2003-02-26 08:44:59 51°18.47 2°51.021 1.2 312 3.7 101220 72
2003-02-26 08:45:04 51°18.47 2°51.021 2.2 303 3.7 101220 72
2003-02-26 08:45:09 51°18.471 2°51.022 1.4 330 3.7 101220 72
2003-02-26 08:45:13 51°18.47 2°51.022 2.1 311 3.7 101210 72
2003-02-26 08:45:19 51°18.471 2°51.023 2.6 311 3.7 101210 72
2003-02-26 08:45:24 51°18.471 2°51.023 1.9 297 3.7 101220 72
2003-02-26 08:45:28 51°18.471 2°51.024 2.6 305 3.7 101220 72
2003-02-26 08:45:33 51°18.471 2°51.024 2.4 312 3.7 101220 72
2003-02-26 08:45:39 51°18.47 2°51.025 2.2 313 3.7 101220 72
2003-02-26 08:45:44 51°18.47 2°51.026 1.9 316 3.7 101210 72
2003-02-26 08:45:49 51°18.471 2°51.027 2.1 303 3.7 101210 72
2003-02-26 08:45:53 51°18.471 2°51.027 2.4 317 3.7 101220 71
2003-02-26 08:45:58 51°18.471 2°51.028 3.1 301 3.7 101220 71
2003-02-26 08:46:04 51°18.471 2°51.029 2.5 314 3.7 101210 72
2003-02-26 08:46:09 51°18.471 2°51.029 1.8 312 3.7 101210 72
2003-02-26 08:46:13 51°18.471 2°51.03 2 323 3.7 101220 71
2003-02-26 08:46:19 51°18.471 2°51.031 3.8 311 3.7 101220 71
2003-02-26 08:46:23 51°18.471 2°51.032 2.6 304 3.7 101210 71
2003-02-26 08:46:29 51°18.471 2°51.033 2.6 312 3.7 101210 71
2003-02-26 08:46:33 51°18.471 2°51.033 3 298 3.7 101220 72
2003-02-26 08:46:39 51°18.472 2°51.034 2 307 3.7 101220 72
2003-02-26 08:46:44 51°18.472 2°51.035 2.6 301 3.7 101210 72
2003-02-26 08:46:49 51°18.472 2°51.036 2.1 312 3.7 101210 72
2003-02-26 08:46:53 51°18.472 2°51.036 2.9 297 3.7 101220 72
2003-02-26 08:46:59 51°18.473 2°51.037 2.4 317 3.7 101220 72
2003-02-26 08:47:04 51°18.473 2°51.038 2.7 315 3.7 101220 72
2003-02-26 08:47:08 51°18.473 2°51.039 2.8 309 3.7 101220 72
2003-02-26 08:47:13 51°18.473 2°51.04 3.1 307 3.7 101220 72
2003-02-26 08:47:19 51°18.473 2°51.041 2.3 320 3.7 101220 72
2003-02-26 08:47:24 51°18.474 2°51.042 2.9 307 3.7 101220 72
2003-02-26 08:47:29 51°18.474 2°51.043 2.3 305 3.7 101220 72
2003-02-26 08:47:33 51°18.474 2°51.044 2.8 309 3.7 101220 72
2003-02-26 08:47:39 51°18.474 2°51.045 3 305 3.7 101220 72
2003-02-26 08:47:44 51°18.475 2°51.046 3.2 308 3.7 101210 72
2003-02-26 08:47:49 51°18.475 2°51.047 3.4 311 3.7 101210 72
2003-02-26 08:47:53 51°18.475 2°51.048 3.3 307 3.7 101210 72
2003-02-26 08:47:58 51°18.475 2°51.049 3.9 303 3.7 101210 72
2003-02-26 08:48:04 51°18.475 2°51.05 3.7 306 3.7 101220 72
2003-02-26 08:48:09 51°18.476 2°51.051 3.3 319 3.7 101220 72
2003-02-26 08:48:13 51°18.476 2°51.052 3.8 301 3.7 101220 72
2003-02-26 08:48:19 51°18.476 2°51.053 2 286 3.7 101220 72
2003-02-26 08:48:23 51°18.477 2°51.054 2.9 313 3.8 101220 72
2003-02-26 08:48:28 51°18.477 2°51.055 2.6 313 3.8 101220 72
2003-02-26 08:48:33 51°18.477 2°51.056 4.1 308 3.7 101220 72
2003-02-26 08:48:39 51°18.477 2°51.057 4.2 306 3.7 101220 72
2003-02-26 08:48:43 51°18.478 2°51.058 3.6 305 3.8 101220 72
2003-02-26 08:48:48 51°18.478 2°51.06 3.6 309 3.8 101220 72
2003-02-26 08:48:53 51°18.479 2°51.061 4.3 305 3.8 101220 72
2003-02-26 08:48:58 51°18.479 2°51.062 3.9 311 3.8 101220 72
2003-02-26 08:49:04 51°18.479 2°51.064 4.1 311 3.8 101220 73
2003-02-26 08:49:08 51°18.48 2°51.064 2.9 327 3.8 101220 73
2003-02-26 08:49:13 51°18.48 2°51.066 4.3 309 3.8 101220 72
2003-02-26 08:49:19 51°18.48 2°51.067 3.8 301 3.8 101220 72
2003-02-26 08:49:24 51°18.481 2°51.068 4 313 3.7 101220 72
2003-02-26 08:49:29 51°18.481 2°51.069 4.6 305 3.7 101220 72
2003-02-26 08:49:33 51°18.481 2°51.071 5.4 306 3.7 101220 72
2003-02-26 08:49:39 51°18.482 2°51.072 4.7 304 3.7 101220 72
2003-02-26 08:49:44 51°18.482 2°51.073 4.8 303 3.8 101210 72
2003-02-26 08:49:49 51°18.483 2°51.074 4.6 303 3.8 101210 72
2003-02-26 08:49:53 51°18.483 2°51.075 4.1 303 3.7 101220 72
2003-02-26 08:49:59 51°18.483 2°51.076 3.5 311 3.7 101220 72
2003-02-26 08:50:03 51°18.483 2°51.077 3.9 300 3.7 101220 72
2003-02-26 08:50:09 51°18.484 2°51.079 4.4 306 3.7 101220 72
2003-02-26 08:50:13 51°18.484 2°51.08 3.8 304 3.7 101220 72
2003-02-26 08:50:19 51°18.485 2°51.081 4.6 308 3.7 101220 72
2003-02-26 08:50:23 51°18.485 2°51.082 4.6 305 3.7 101220 71
2003-02-26 08:50:29 51°18.485 2°51.083 3.5 314 3.7 101220 71
2003-02-26 08:50:33 51°18.486 2°51.084 5.2 306 3.7 101220 71
2003-02-26 08:50:38 51°18.486 2°51.086 4.5 300 3.7 101220 71
2003-02-26 08:50:43 51°18.486 2°51.087 4 294 3.7 101220 72
2003-02-26 08:50:49 51°18.487 2°51.088 3.2 305 3.7 101220 72
2003-02-26 08:50:53 51°18.488 2°51.09 3.2 300 3.7 101220 72
2003-02-26 08:50:58 51°18.488 2°51.091 4 307 3.7 101220 72
2003-02-26 08:51:04 51°18.489 2°51.092 5.1 302 3.8 101220 71
2003-02-26 08:51:09 51°18.489 2°51.093 4.2 304 3.8 101220 71
2003-02-26 08:51:13 51°18.489 2°51.094 4.3 308 3.8 101220 71
2003-02-26 08:51:19 51°18.49 2°51.096 4.5 303 3.8 101220 71
2003-02-26 08:51:23 51°18.49 2°51.096 4.3 299 3.7 101220 71
2003-02-26 08:51:29 51°18.49 2°51.098 4.2 302 3.7 101220 71
2003-02-26 08:51:33 51°18.491 2°51.099 4.4 305 3.7 101220 71
2003-02-26 08:51:39 51°18.491 2°51.101 3.8 304 3.7 101220 71
2003-02-26 08:51:44 51°18.492 2°51.102 3.9 307 3.8 101220 71
2003-02-26 08:51:49 51°18.492 2°51.103 4 306 3.8 101220 71
2003-02-26 08:51:53 51°18.493 2°51.104 3.8 303 3.8 101220 71
2003-02-26 08:51:59 51°18.493 2°51.106 4.4 302 3.8 101220 71
2003-02-26 08:52:04 51°18.493 2°51.107 5 303 3.8 101220 72
2003-02-26 08:52:09 51°18.493 2°51.108 6.1 297 3.8 101220 72
2003-02-26 08:52:13 51°18.493 2°51.109 5.7 295 3.8 101210 72
2003-02-26 08:52:19 51°18.491 2°51.11 6 293 3.8 101210 72
2003-02-26 08:52:24 51°18.489 2°51.111 5.9 285 3.8 101220 71
2003-02-26 08:52:29 51°18.486 2°51.113 6.3 283 3.8 101220 71
2003-02-26 08:52:33 51°18.484 2°51.114 6.6 276 3.8 101220 71
2003-02-26 08:52:39 51°18.48 2°51.117 6.8 275 3.8 101220 71
2003-02-26 08:52:44 51°18.476 2°51.12 6.6 269 3.8 101220 71
2003-02-26 08:52:49 51°18.471 2°51.125 6.9 270 3.8 101220 71
2003-02-26 08:52:53 51°18.468 2°51.128 7.8 265 3.8 101220 71
2003-02-26 08:52:59 51°18.462 2°51.135 7.6 261 3.8 101220 71
2003-02-26 08:53:03 51°18.459 2°51.14 7.6 257 3.8 101210 71
2003-02-26 08:53:08 51°18.454 2°51.147 8 253 3.8 101210 71
2003-02-26 08:53:12 51°18.45 2°51.153 7.8 251 3.8 101210 71
2003-02-26 08:53:19 51°18.444 2°51.165 8.3 247 3.8 101210 71
2003-02-26 08:53:24 51°18.439 2°51.175 8.7 243 3.8 101200 71
2003-02-26 08:53:29 51°18.436 2°51.186 8.5 239 3.8 101200 71
2003-02-26 08:53:33 51°18.433 2°51.195 9 237 3.8 101200 71
2003-02-26 08:53:39 51°18.429 2°51.211 9 234 3.8 101200 71
2003-02-26 08:53:44 51°18.426 2°51.225 8.8 230 3.8 101200 71
2003-02-26 08:53:48 51°18.424 2°51.238 9 229 3.8 101200 71
2003-02-26 08:53:53 51°18.423 2°51.255 9.8 223 3.8 101210 71
2003-02-26 08:53:59 51°18.422 2°51.278 9.2 219 3.8 101210 71
2003-02-26 08:54:03 51°18.423 2°51.294 9.2 217 3.8 101210 71
2003-02-26 08:54:08 51°18.425 2°51.314 9.4 212 3.8 101210 71
2003-02-26 08:54:13 51°18.428 2°51.335 9.9 212 3.8 101200 71
2003-02-26 08:54:18 51°18.432 2°51.357 9.4 209 3.8 101200 71
2003-02-26 08:54:23 51°18.437 2°51.38 9.9 213 3.8 101210 71
2003-02-26 08:54:29 51°18.444 2°51.408 9.8 211 3.8 101210 71
2003-02-26 08:54:34 51°18.45 2°51.432 10.2 216 3.8 101200 71
2003-02-26 08:54:38 51°18.455 2°51.452 10.2 213 3.8 101200 71
2003-02-26 08:54:43 51°18.461 2°51.478 10.5 215 3.8 101200 71
2003-02-26 08:54:49 51°18.468 2°51.511 10.7 214 3.8 101200 71
2003-02-26 08:54:52 51°18.472 2°51.528 11.3 216 3.8 101200 71
2003-02-26 08:54:59 51°18.481 2°51.569 11.1 217 3.8 101200 71
2003-02-26 08:55:04 51°18.487 2°51.599 11.3 218 3.8 101200 71
2003-02-26 08:55:09 51°18.494 2°51.629 11.7 216 3.8 101200 71
2003-02-26 08:55:12 51°18.499 2°51.647 11.6 218 3.8 101200 71
2003-02-26 08:55:19 51°18.508 2°51.69 11.7 216 3.8 101200 71
2003-02-26 08:55:24 51°18.515 2°51.721 11.5 216 3.8 101200 72
2003-02-26 08:55:28 51°18.52 2°51.746 11.8 218 3.8 101200 72
2003-02-26 08:55:33 51°18.527 2°51.777 11.8 218 3.8 101200 72
2003-02-26 08:55:39 51°18.536 2°51.815 11.5 219 3.8 101200 72
2003-02-26 08:55:43 51°18.541 2°51.84 11.8 222 3.9 101200 72
2003-02-26 08:55:49 51°18.549 2°51.877 11.1 220 3.9 101200 72
2003-02-26 08:55:53 51°18.555 2°51.903 11.3 219 3.9 101200 72
2003-02-26 08:55:59 51°18.563 2°51.94 12.1 218 3.9 101200 72
2003-02-26 08:56:03 51°18.569 2°51.965 11.6 219 3.9 101200 73
2003-02-26 08:56:09 51°18.578 2°52.003 11.8 217 3.9 101200 73
2003-02-26 08:56:13 51°18.584 2°52.028 12.4 217 3.9 101200 73
2003-02-26 08:56:19 51°18.593 2°52.065 11.7 216 3.9 101200 73
2003-02-26 08:56:23 51°18.599 2°52.09 11.8 217 3.9 101200 73
2003-02-26 08:56:28 51°18.606 2°52.121 11.5 217 3.9 101200 73
2003-02-26 08:56:33 51°18.614 2°52.153 12 217 3.9 101200 73
2003-02-26 08:56:39 51°18.623 2°52.191 11.8 218 3.9 101200 73
2003-02-26 08:56:44 51°18.631 2°52.222 12.3 218 3.9 101200 73
2003-02-26 08:56:49 51°18.639 2°52.253 11.7 216 3.9 101200 73
2003-02-26 08:56:53 51°18.645 2°52.278 12 216 3.9 101200 73
2003-02-26 08:56:59 51°18.654 2°52.315 12.5 216 3.9 101200 73
2003-02-26 08:57:04 51°18.661 2°52.346 12.7 216 3.9 101200 73
2003-02-26 08:57:08 51°18.667 2°52.371 12.1 216 3.9 101200 73
2003-02-26 08:57:13 51°18.674 2°52.403 12.3 214 3.8 101200 72
2003-02-26 08:57:18 51°18.682 2°52.434 12 216 3.8 101200 72
2003-02-26 08:57:24 51°18.691 2°52.471 12.8 216 3.8 101200 72
2003-02-26 08:57:29 51°18.698 2°52.502 11.5 214 3.8 101200 72
2003-02-26 08:57:33 51°18.705 2°52.527 12.1 215 3.8 101200 72
2003-02-26 08:57:39 51°18.713 2°52.564 12.6 218 3.8 101200 72
2003-02-26 08:57:43 51°18.719 2°52.589 11.7 215 3.8 101200 72
2003-02-26 08:57:48 51°18.727 2°52.62 11.6 216 3.8 101200 72
2003-02-26 08:57:53 51°18.734 2°52.651 12.2 215 3.8 101200 72
2003-02-26 08:57:58 51°18.741 2°52.682 11.5 218 3.8 101200 72
2003-02-26 08:58:04 51°18.75 2°52.72 11.7 218 3.8 101200 72
2003-02-26 08:58:08 51°18.756 2°52.745 12.2 218 3.8 101200 72
2003-02-26 08:58:12 51°18.762 2°52.77 11.6 219 3.8 101200 72
2003-02-26 08:58:19 51°18.772 2°52.813 11.6 217 3.8 101200 72
2003-02-26 08:58:24 51°18.78 2°52.845 11.7 218 3.9 101200 72
2003-02-26 08:58:29 51°18.788 2°52.876 11.3 218 3.9 101200 72
2003-02-26 08:58:33 51°18.794 2°52.901 11.8 218 3.9 101200 73
2003-02-26 08:58:39 51°18.803 2°52.938 11.2 220 3.9 101200 73
2003-02-26 08:58:43 51°18.809 2°52.963 12.6 220 3.9 101200 73
2003-02-26 08:58:48 51°18.816 2°52.995 11.6 219 3.9 101200 73
2003-02-26 08:58:53 51°18.824 2°53.026 12 218 3.9 101200 73
2003-02-26 08:58:58 51°18.832 2°53.057 12 219 3.9 101200 73
2003-02-26 08:59:04 51°18.841 2°53.094 12.2 217 3.9 101210 73
2003-02-26 08:59:09 51°18.848 2°53.126 11.9 219 3.9 101210 73
2003-02-26 08:59:13 51°18.854 2°53.151 11.8 219 3.9 101210 73
2003-02-26 08:59:19 51°18.863 2°53.188 12 219 3.9 101210 73
2003-02-26 08:59:23 51°18.869 2°53.213 11.6 221 3.9 101210 73
2003-02-26 08:59:28 51°18.876 2°53.244 11.6 220 3.9 101210 73
2003-02-26 08:59:34 51°18.885 2°53.282 11.8 217 3.9 101200 73
2003-02-26 08:59:39 51°18.892 2°53.313 11.8 219 3.9 101200 73
2003-02-26 08:59:44 51°18.9 2°53.344 11.7 218 3.9 101210 73
2003-02-26 08:59:49 51°18.907 2°53.375 11.5 220 3.9 101210 73
2003-02-26 08:59:53 51°18.913 2°53.4 11.7 222 4 101210 73
2003-02-26 08:59:58 51°18.921 2°53.432 11.9 220 4 101210 73
2003-02-26 09:00:03 51°18.928 2°53.463 11.3 221 4 101210 73
2003-02-26 09:00:09 51°18.938 2°53.5 11.8 221 4 101210 73
2003-02-26 09:00:13 51°18.944 2°53.525 11.8 220 4 101210 74
2003-02-26 09:00:18 51°18.951 2°53.556 12.2 219 4 101210 74
2003-02-26 09:00:24 51°18.96 2°53.594 11.6 218 4 101210 74
2003-02-26 09:00:29 51°18.968 2°53.625 12 219 4 101210 74
2003-02-26 09:00:33 51°18.975 2°53.649 12.3 219 3.9 101210 74
2003-02-26 09:00:39 51°18.984 2°53.686 11.7 221 3.9 101210 74
2003-02-26 09:00:43 51°18.99 2°53.712 12.4 219 4 101210 73